KFRR/FRR METAR and TAF weather

Enter ICAO airport designator
Station Type Date Time Source
KFRR METAR 2020/12/05 05:55 UTC NOAA

KFRR 050555Z AUTO 00000KT 3/4SM OVC001 05/05 A2977 RMK AO1 P0001


Station Type Date Time Source
KFRR Decoded METAR 2020/12/05 05:55 UTC NOAA

Station name not available
Dec 05, 2020 - 12:55 AM EST / 2020.12.05 0555 UTC
Wind: Calm:0
Visibility: 3/4 mile(s):0
Sky conditions: overcast
Precipitation last hour: 0.01 inches
Temperature: 41 F (5 C)
Dew Point: 41 F (5 C)
Relative Humidity: 100%
Pressure (altimeter): 29.77 in. Hg (1008 hPa)
ob: KFRR 050555Z AUTO 00000KT 3/4SM OVC001 05/05 A2977 RMK AO1 P0001
cycle: 6

Station Type Date Time Source
KFRR TAF UTC NOAA

Error!

Example: see airport list